Time;durP1;ratioP1;P1;durP2;ratioP2;P2;SDS_P1;SDS_P2;PMS_P1;PMS_P2;Temp;Humidity;BMP_temperature;BMP_pressure;BME280_temperature;BME280_humidity;BME280_pressure;Samples;Min_cycle;Max_cycle;Signal;HPM_P1;HPM_P2
2023/01/25 00:02:17;;;;;;;11.73;5.72;;;;;;;-10.69;74.98;101009.59;4951331;29;20048;-91
2023/01/25 00:04:43;;;;;;;9.60;5.13;;;;;;;-10.65;75.11;101026.94;4937885;29;20063;-91
2023/01/25 00:07:09;;;;;;;12.35;6.63;;;;;;;-10.67;75.07;101023.44;4934694;29;20124;-90
2023/01/25 00:09:35;;;;;;;9.50;5.03;;;;;;;-10.59;75.15;101018.53;4928661;29;20051;-89
2023/01/25 00:12:01;;;;;;;12.38;6.65;;;;;;;-10.56;75.58;101008.28;4951183;29;20065;-91
2023/01/25 00:14:26;;;;;;;15.90;7.38;;;;;;;-10.50;75.55;101005.00;4943539;29;20051;-91
2023/01/25 00:16:53;;;;;;;12.45;6.90;;;;;;;-10.57;75.45;100994.50;4992561;23;20043;-93
2023/01/25 00:19:19;;;;;;;12.00;5.32;;;;;;;-10.33;74.98;101009.00;4982785;28;20047;-92
2023/01/25 00:21:45;;;;;;;11.88;5.72;;;;;;;-10.35;75.33;100990.84;4960080;29;20051;-93
2023/01/25 00:24:13;;;;;;;10.73;7.30;;;;;;;-10.35;74.97;100985.69;4940628;29;20098;-93
2023/01/25 00:26:39;;;;;;;12.88;7.38;;;;;;;-10.37;74.77;100981.31;4955276;29;20047;-94
2023/01/25 00:29:12;;;;;;;17.92;9.27;;;;;;;-10.39;74.88;100972.63;4953377;29;20047;-93
2023/01/25 00:31:56;;;;;;;10.60;6.20;;;;;;;-10.38;74.94;100972.69;4953106;29;20070;-92
2023/01/25 00:34:22;;;;;;;11.93;6.88;;;;;;;-10.33;74.51;100980.56;4960680;29;20043;-93
2023/01/25 00:37:01;;;;;;;13.50;7.10;;;;;;;-10.27;74.88;100978.16;4960023;29;20053;-91
2023/01/25 00:39:28;;;;;;;14.15;8.02;;;;;;;-10.26;74.76;100995.44;4957727;29;20051;-91
2023/01/25 00:41:54;;;;;;;14.95;7.88;;;;;;;-10.34;74.60;100976.22;4940953;29;20054;-91
2023/01/25 00:44:21;;;;;;;12.60;6.20;;;;;;;-10.24;74.71;100982.50;4956036;29;20039;-93
2023/01/25 00:46:47;;;;;;;16.90;9.05;;;;;;;-10.16;74.54;100979.31;4942122;29;20055;-92
2023/01/25 00:49:22;;;;;;;14.15;8.00;;;;;;;-10.08;74.08;100980.44;4942953;29;20070;-93
2023/01/25 00:51:49;;;;;;;14.10;7.68;;;;;;;-10.11;74.26;100979.47;4925406;29;20050;-92
2023/01/25 00:54:15;;;;;;;15.13;8.07;;;;;;;-10.16;74.07;100976.72;4959804;29;20043;-92
2023/01/25 00:56:42;;;;;;;18.48;8.27;;;;;;;-10.25;73.75;100973.91;4926868;29;20110;-92
2023/01/25 00:59:09;;;;;;;17.92;8.18;;;;;;;-10.30;73.99;100954.81;4940604;29;20091;-94
2023/01/25 01:01:35;;;;;;;16.45;7.93;;;;;;;-10.35;73.74;100949.50;4973214;28;20082;-93
2023/01/25 01:04:01;;;;;;;12.80;7.13;;;;;;;-10.42;74.01;100964.75;4953469;29;20046;-92
2023/01/25 01:06:27;;;;;;;15.60;7.38;;;;;;;-10.57;73.82;100941.91;4937450;29;20050;-93
2023/01/25 01:08:53;;;;;;;16.42;7.38;;;;;;;-10.55;73.64;100946.31;4925084;29;20047;-93
2023/01/25 01:11:18;;;;;;;12.55;7.13;;;;;;;-10.42;73.80;100967.34;4921171;29;20078;-89
2023/01/25 01:13:44;;;;;;;15.80;8.93;;;;;;;-10.54;73.38;100967.84;4945399;29;20047;-91
2023/01/25 01:16:12;;;;;;;14.90;8.90;;;;;;;-10.60;73.51;100947.88;4944065;28;20126;-89
2023/01/25 01:18:41;;;;;;;14.57;7.25;;;;;;;-10.70;73.05;100960.47;4896993;29;20498;-91
2023/01/25 01:21:08;;;;;;;16.52;8.77;;;;;;;-10.85;73.39;100956.56;4894755;29;20051;-91
2023/01/25 01:23:34;;;;;;;18.27;8.70;;;;;;;-10.89;73.18;100954.72;4927397;29;20051;-91
2023/01/25 01:26:01;;;;;;;15.77;7.82;;;;;;;-10.79;73.53;100963.66;4912524;29;20043;-91
2023/01/25 01:28:28;;;;;;;17.05;8.65;;;;;;;-10.93;73.37;100963.19;4944997;29;20073;-92
2023/01/25 01:31:03;;;;;;;14.95;7.50;;;;;;;-10.98;73.60;100949.25;4951003;29;20039;-90
2023/01/25 01:33:34;;;;;;;14.30;7.75;;;;;;;-10.94;73.37;100951.13;4947594;29;20542;-91
2023/01/25 01:36:07;;;;;;;14.20;7.57;;;;;;;-10.97;73.72;100934.63;4935352;29;20130;-92
2023/01/25 01:38:32;;;;;;;14.43;7.50;;;;;;;-11.00;73.30;100930.25;4931902;29;20149;-90
2023/01/25 01:41:02;;;;;;;20.05;9.38;;;;;;;-11.01;73.64;100924.22;4927633;29;20049;-90
2023/01/25 01:43:29;;;;;;;17.60;8.45;;;;;;;-10.99;73.57;100936.28;4946570;29;20047;-91
2023/01/25 01:46:00;;;;;;;14.10;7.80;;;;;;;-10.99;73.59;100941.44;4935397;29;20039;-92
2023/01/25 01:48:48;;;;;;;20.08;9.18;;;;;;;-11.15;73.62;100924.59;4924578;29;20043;-93
2023/01/25 01:51:54;;;;;;;12.25;6.97;;;;;;;-11.29;73.87;100927.56;4940893;29;20079;-90
2023/01/25 01:54:33;;;;;;;11.82;6.03;;;;;;;-11.26;73.82;100916.47;4928615;29;20059;-94
2023/01/25 01:57:28;;;;;;;14.95;7.28;;;;;;;-11.31;73.28;100933.53;4960847;29;20058;-92
2023/01/25 02:00:09;;;;;;;17.15;8.45;;;;;;;-11.29;73.11;100948.22;4945178;29;20054;-94
2023/01/25 02:02:43;;;;;;;11.23;6.57;;;;;;;-11.55;72.96;100938.72;4934396;29;20059;-90
2023/01/25 02:05:31;;;;;;;12.70;5.60;;;;;;;-11.64;73.16;100938.41;4920092;28;20123;-91
2023/01/25 02:07:57;;;;;;;13.57;6.57;;;;;;;-11.68;73.18;100958.06;4937208;29;20063;-89
2023/01/25 02:10:25;;;;;;;14.75;6.88;;;;;;;-11.76;72.84;100933.72;4923954;29;20554;-89
2023/01/25 02:12:55;;;;;;;10.48;6.03;;;;;;;-11.81;73.03;100940.38;4910142;29;20134;-90
2023/01/25 02:15:57;;;;;;;11.63;5.72;;;;;;;-12.05;73.33;100925.84;4928803;29;20049;-90
2023/01/25 02:18:30;;;;;;;12.65;6.63;;;;;;;-12.06;73.39;100939.56;4925112;29;20052;-90
2023/01/25 02:20:58;;;;;;;17.58;7.43;;;;;;;-12.10;73.67;100924.81;4922008;29;20139;-89
2023/01/25 02:24:03;;;;;;;11.38;6.15;;;;;;;-12.00;73.12;100944.03;4889718;29;20134;-88
2023/01/25 02:26:30;;;;;;;16.95;5.55;;;;;;;-12.13;73.38;100935.00;4938957;29;20047;-89
2023/01/25 02:29:03;;;;;;;15.60;7.10;;;;;;;-12.12;73.73;100944.47;4928706;29;20044;-91
2023/01/25 02:31:29;;;;;;;11.30;6.60;;;;;;;-12.20;73.86;100940.75;4935630;29;20051;-89
2023/01/25 02:33:54;;;;;;;11.98;5.88;;;;;;;-12.24;73.41;100928.56;4936477;29;20047;-88
2023/01/25 02:36:27;;;;;;;13.60;7.10;;;;;;;-12.32;74.09;100924.84;4935605;29;20044;-90
2023/01/25 02:38:58;;;;;;;17.77;6.63;;;;;;;-12.20;74.19;100942.44;4926619;29;20047;-90
2023/01/25 02:41:32;;;;;;;13.52;7.30;;;;;;;-12.20;73.53;100927.84;4926229;29;20111;-91
2023/01/25 02:44:00;;;;;;;9.15;5.00;;;;;;;-12.11;73.58;100942.78;4926921;29;20043;-90
2023/01/25 02:46:30;;;;;;;13.52;6.32;;;;;;;-12.19;73.63;100937.34;4935338;29;20085;-91
2023/01/25 02:48:58;;;;;;;16.02;7.40;;;;;;;-12.29;73.61;100914.66;4931799;29;20106;-92
2023/01/25 02:51:30;;;;;;;17.77;7.03;;;;;;;-12.25;74.00;100921.66;4900348;29;20052;-89
2023/01/25 02:53:56;;;;;;;12.30;6.35;;;;;;;-12.34;73.96;100918.72;4942397;28;20032;-91
2023/01/25 02:56:23;;;;;;;13.35;6.40;;;;;;;-12.30;73.76;100925.75;4925828;29;20063;-91
2023/01/25 02:58:49;;;;;;;13.77;7.20;;;;;;;-12.33;73.68;100936.84;4927703;29;20036;-93
2023/01/25 03:01:19;;;;;;;12.48;6.20;;;;;;;-12.44;73.67;100924.38;5184785;23;20052;-91
2023/01/25 03:03:45;;;;;;;11.52;6.53;;;;;;;-12.46;73.80;100926.00;4955361;29;20032;-95
2023/01/25 03:06:12;;;;;;;17.33;8.15;;;;;;;-12.46;74.05;100932.03;4949691;29;20050;-93
2023/01/25 03:08:40;;;;;;;13.70;6.80;;;;;;;-12.45;74.41;100922.59;4926529;29;20039;-95
2023/01/25 03:11:06;;;;;;;15.32;6.80;;;;;;;-12.38;74.21;100927.16;4959850;29;20043;-92
2023/01/25 03:13:34;;;;;;;10.90;5.53;;;;;;;-12.53;74.45;100915.47;4959967;29;20055;-94
2023/01/25 03:16:06;;;;;;;15.10;6.57;;;;;;;-12.60;74.33;100916.03;4944155;29;20048;-94
2023/01/25 03:18:36;;;;;;;12.15;6.10;;;;;;;-12.55;74.00;100917.13;4943124;29;20044;-94
2023/01/25 03:21:09;;;;;;;16.65;5.53;;;;;;;-12.55;73.73;100922.28;4927518;29;20048;-95
2023/01/25 03:23:36;;;;;;;10.98;6.30;;;;;;;-12.74;73.73;100899.22;4943278;29;20028;-94
2023/01/25 03:26:15;;;;;;;12.50;6.30;;;;;;;-12.73;74.00;100921.56;4943460;29;20111;-93
2023/01/25 03:28:57;;;;;;;11.52;5.80;;;;;;;-12.71;73.68;100925.09;4939777;29;20078;-94
2023/01/25 03:31:25;;;;;;;11.15;5.03;;;;;;;-12.79;73.93;100916.16;4941766;29;20043;-93
2023/01/25 03:33:51;;;;;;;8.23;5.37;;;;;;;-12.69;74.25;100913.13;4960090;29;20028;-93
2023/01/25 03:36:24;;;;;;;14.93;5.53;;;;;;;-12.86;74.24;100922.78;4959974;29;20039;-94
2023/01/25 03:38:50;;;;;;;12.20;6.13;;;;;;;-12.95;74.41;100913.81;4938814;29;20048;-92
2023/01/25 03:41:29;;;;;;;14.27;6.32;;;;;;;-13.00;74.27;100917.09;4921508;29;20043;-92
2023/01/25 03:43:58;;;;;;;8.15;4.90;;;;;;;-12.90;74.18;100918.31;4939569;29;20094;-92
2023/01/25 03:46:24;;;;;;;12.00;6.45;;;;;;;-13.01;74.32;100909.28;5087758;23;20495;-92
2023/01/25 03:48:51;;;;;;;13.60;6.40;;;;;;;-13.01;73.98;100920.50;5037472;23;20087;-89
2023/01/25 03:51:17;;;;;;;11.73;5.40;;;;;;;-13.04;74.16;100910.06;4908026;29;20126;-85
2023/01/25 03:53:43;;;;;;;11.80;6.05;;;;;;;-13.03;74.49;100934.97;4904630;29;20068;-87
2023/01/25 03:56:33;;;;;;;8.80;5.05;;;;;;;-13.05;74.04;100923.75;4920585;29;20142;-87
2023/01/25 03:59:45;;;;;;;9.95;5.95;;;;;;;-12.95;74.28;100929.25;4914581;29;20048;-93
2023/01/25 04:02:13;;;;;;;7.72;4.57;;;;;;;-13.09;74.39;100916.69;4917606;29;20059;-91
2023/01/25 04:04:39;;;;;;;9.60;5.30;;;;;;;-12.96;74.15;100933.53;4935053;29;20079;-90
2023/01/25 04:07:06;;;;;;;10.57;4.18;;;;;;;-13.10;73.67;100914.97;5033914;23;20099;-91
2023/01/25 04:09:35;;;;;;;7.55;4.80;;;;;;;-12.95;73.58;100924.13;4963848;29;20071;-85
2023/01/25 04:12:04;;;;;;;13.60;6.88;;;;;;;-12.98;73.70;100927.44;4973573;28;20074;-92
2023/01/25 04:14:32;;;;;;;15.88;6.88;;;;;;;-12.97;73.17;100922.38;4954324;29;20051;-93
2023/01/25 04:17:04;;;;;;;10.93;5.90;;;;;;;-12.86;73.06;100920.22;4947675;29;20043;-95
2023/01/25 04:19:39;;;;;;;12.07;6.22;;;;;;;-12.81;72.80;100933.25;4960461;29;20061;-92
2023/01/25 04:22:10;;;;;;;10.82;5.97;;;;;;;-12.78;72.16;100954.00;4934741;29;20564;-93
2023/01/25 04:24:37;;;;;;;8.63;4.82;;;;;;;-12.84;71.88;100928.00;4934182;29;20051;-89
2023/01/25 04:27:07;;;;;;;9.10;4.40;;;;;;;-12.79;71.99;100947.06;4957478;29;20094;-89
2023/01/25 04:29:43;;;;;;;8.93;4.38;;;;;;;-12.94;71.93;100936.16;4957285;23;20070;-88
2023/01/25 04:32:15;;;;;;;8.73;4.05;;;;;;;-13.11;72.07;100931.22;4916388;29;20074;-93
2023/01/25 04:34:41;;;;;;;31.92;6.05;;;;;;;-13.27;71.98;100916.03;4930537;29;20063;-93
2023/01/25 04:37:13;;;;;;;16.67;4.53;;;;;;;-13.31;72.09;100906.41;4935418;29;20127;-91
2023/01/25 04:39:49;;;;;;;10.15;5.07;;;;;;;-13.11;72.77;100931.22;4932027;29;20090;-92
2023/01/25 04:42:15;;;;;;;8.23;4.13;;;;;;;-13.25;72.71;100910.09;4918108;29;20414;-93
2023/01/25 04:44:44;;;;;;;13.07;4.93;;;;;;;-13.13;72.11;100917.41;4936270;29;20027;-93
2023/01/25 04:47:12;;;;;;;10.27;5.40;;;;;;;-13.08;71.64;100921.06;4924248;29;20043;-87
2023/01/25 04:49:38;;;;;;;10.95;4.60;;;;;;;-13.19;71.43;100909.44;4893608;29;20135;-90
2023/01/25 04:52:04;;;;;;;10.93;5.05;;;;;;;-13.00;71.25;100927.38;4895683;29;20047;-91
2023/01/25 04:54:30;;;;;;;4.50;3.63;;;;;;;-13.18;70.68;100906.06;4926094;29;20054;-87
2023/01/25 04:56:56;;;;;;;8.70;5.25;;;;;;;-13.14;70.27;100920.78;4946038;29;20105;-91
2023/01/25 04:59:22;;;;;;;8.40;4.47;;;;;;;-13.29;71.09;100908.22;4916876;29;20106;-90
2023/01/25 05:01:48;;;;;;;8.65;4.68;;;;;;;-13.26;70.56;100902.34;4933635;29;20051;-91
2023/01/25 05:04:14;;;;;;;11.38;4.55;;;;;;;-13.15;71.07;100921.63;4936820;29;20050;-89
2023/01/25 05:06:43;;;;;;;9.52;5.88;;;;;;;-13.09;70.97;100916.69;4922992;29;20074;-88
2023/01/25 05:09:16;;;;;;;8.40;5.13;;;;;;;-13.05;70.86;100903.16;4923417;29;20418;-89
2023/01/25 05:11:43;;;;;;;5.65;4.03;;;;;;;-13.00;70.29;100918.78;4933030;29;20059;-88
2023/01/25 05:14:18;;;;;;;8.15;4.72;;;;;;;-13.01;70.69;100925.63;4947966;29;20039;-88
2023/01/25 05:16:46;;;;;;;9.02;5.80;;;;;;;-13.04;70.20;100886.03;4929894;29;20058;-90
2023/01/25 05:19:13;;;;;;;7.95;4.10;;;;;;;-13.02;70.47;100908.41;4912516;29;20138;-88
2023/01/25 05:21:56;;;;;;;9.68;4.85;;;;;;;-12.97;70.73;100912.06;4923175;29;20130;-89
2023/01/25 05:24:23;;;;;;;12.90;5.47;;;;;;;-12.89;70.99;100914.06;4911880;29;20058;-86
2023/01/25 05:27:04;;;;;;;9.88;6.05;;;;;;;-12.83;70.58;100927.16;4891867;29;20043;-93
2023/01/25 05:29:50;;;;;;;5.78;3.22;;;;;;;-12.71;70.59;100914.78;4918703;29;20509;-90
2023/01/25 05:32:23;;;;;;;11.15;5.95;;;;;;;-12.61;69.94;100906.56;4924386;29;20131;-89
2023/01/25 05:34:49;;;;;;;4.03;2.95;;;;;;;-12.41;69.89;100929.63;4889030;29;20048;-85
2023/01/25 05:37:18;;;;;;;11.77;6.60;;;;;;;-12.42;70.36;100907.28;4923249;29;20083;-93
2023/01/25 05:39:46;;;;;;;9.50;6.10;;;;;;;-12.16;70.15;100922.00;4889436;29;20044;-83
2023/01/25 05:42:17;;;;;;;4.72;3.40;;;;;;;-11.57;75.22;100925.78;4938484;29;20052;-82
2023/01/25 05:44:44;;;;;;;11.38;6.55;;;;;;;-11.40;71.53;100926.34;4937617;29;20048;-87
2023/01/25 05:47:16;;;;;;;11.15;5.03;;;;;;;-11.02;71.48;100916.38;4906159;29;20088;-89
2023/01/25 05:49:42;;;;;;;11.40;5.70;;;;;;;-11.15;69.25;100899.63;4903153;29;20044;-81
2023/01/25 05:52:15;;;;;;;9.23;5.00;;;;;;;-11.25;67.93;100905.31;4910578;29;20048;-92
2023/01/25 05:54:41;;;;;;;10.55;5.07;;;;;;;-11.37;67.70;100897.19;4887511;29;20040;-86
2023/01/25 05:57:09;;;;;;;6.38;4.05;;;;;;;-11.35;67.65;100905.88;4917604;29;20562;-82
2023/01/25 05:59:35;;;;;;;9.32;5.45;;;;;;;-11.46;67.20;100897.75;4900329;29;20142;-80
2023/01/25 06:02:04;;;;;;;7.53;4.22;;;;;;;-11.27;67.31;100920.78;4901529;29;20066;-80
2023/01/25 06:04:32;;;;;;;8.60;5.00;;;;;;;-11.43;67.72;100896.97;4886448;29;20138;-84
2023/01/25 06:06:59;;;;;;;6.97;4.38;;;;;;;-11.38;67.45;100879.97;4888075;29;20071;-86
2023/01/25 06:09:25;;;;;;;8.15;4.40;;;;;;;-11.32;67.47;100887.88;4890700;29;20040;-86
2023/01/25 06:11:51;;;;;;;7.40;4.63;;;;;;;-11.39;66.84;100896.28;4917459;29;20050;-86
2023/01/25 06:14:19;;;;;;;10.15;6.07;;;;;;;-11.43;66.75;100891.81;4917436;29;20143;-83
2023/01/25 06:16:45;;;;;;;11.07;5.63;;;;;;;-11.27;66.94;100899.25;4917748;29;20138;-87
2023/01/25 06:19:29;;;;;;;11.93;6.65;;;;;;;-11.36;67.20;100898.94;4918759;29;20054;-86
2023/01/25 06:22:15;;;;;;;10.80;6.20;;;;;;;-11.31;66.79;100902.56;4926895;29;20064;-80
2023/01/25 06:24:43;;;;;;;10.02;5.05;;;;;;;-11.33;66.26;100904.19;4937135;29;20027;-91
2023/01/25 06:27:11;;;;;;;11.57;6.50;;;;;;;-11.12;66.90;100916.94;4935694;29;20495;-84
2023/01/25 06:29:37;;;;;;;11.00;5.55;;;;;;;-11.05;65.98;100917.19;4891922;29;20060;-84
2023/01/25 06:32:06;;;;;;;12.32;5.68;;;;;;;-11.07;65.52;100925.72;4918719;29;20044;-88
2023/01/25 06:34:32;;;;;;;10.25;5.90;;;;;;;-10.99;66.25;100905.28;4904344;29;20130;-92
2023/01/25 06:36:58;;;;;;;13.35;6.75;;;;;;;-11.01;65.50;100913.00;4924210;29;20082;-93
2023/01/25 06:39:23;;;;;;;9.75;5.88;;;;;;;-11.01;65.82;100913.88;4920211;29;20067;-92
2023/01/25 06:41:49;;;;;;;10.57;6.32;;;;;;;-10.97;66.07;100909.69;4917299;29;20058;-85
2023/01/25 06:44:15;;;;;;;5.90;4.10;;;;;;;-11.00;65.93;100914.75;4911080;29;20452;-81
2023/01/25 06:46:41;;;;;;;15.98;6.70;;;;;;;-10.90;65.76;100910.78;4890104;29;20130;-85
2023/01/25 06:49:06;;;;;;;9.50;5.47;;;;;;;-10.92;65.51;100913.28;4912589;29;20044;-88
2023/01/25 06:51:32;;;;;;;10.98;6.28;;;;;;;-11.01;66.03;100908.72;4935790;29;20052;-87
2023/01/25 06:54:02;;;;;;;12.55;6.47;;;;;;;-10.93;65.64;100915.84;4934558;29;20074;-87
2023/01/25 06:56:28;;;;;;;9.23;5.47;;;;;;;-11.07;65.86;100905.91;4906824;29;20047;-84
2023/01/25 06:58:53;;;;;;;11.23;6.13;;;;;;;-11.12;65.91;100914.38;4921660;29;20055;-90
2023/01/25 07:01:25;;;;;;;12.55;7.38;;;;;;;-11.13;66.47;100910.00;4919743;29;20044;-87
2023/01/25 07:03:55;;;;;;;11.95;5.80;;;;;;;-11.15;66.85;100906.50;4905062;29;20388;-90
2023/01/25 07:06:21;;;;;;;10.52;6.20;;;;;;;-11.01;66.19;100919.03;4923267;29;20043;-87
2023/01/25 07:08:47;;;;;;;11.32;6.10;;;;;;;-11.03;66.38;100920.69;4938711;29;20615;-90
2023/01/25 07:11:18;;;;;;;11.27;6.25;;;;;;;-11.03;66.47;100907.78;4921654;29;20048;-83
2023/01/25 07:13:45;;;;;;;12.85;6.63;;;;;;;-10.62;69.05;100903.03;4921528;29;20050;-90
2023/01/25 07:16:15;;;;;;;11.07;6.28;;;;;;;-10.44;70.00;100891.50;4895799;29;20051;-86
2023/01/25 07:18:41;;;;;;;11.98;6.55;;;;;;;-10.40;66.41;100898.50;4923888;29;20043;-88
2023/01/25 07:21:10;;;;;;;13.18;6.10;;;;;;;-10.46;65.60;100914.69;4925033;29;20071;-82
2023/01/25 07:23:37;;;;;;;16.33;6.28;;;;;;;-10.33;65.54;100921.13;4923303;29;20051;-86
2023/01/25 07:26:05;;;;;;;9.20;6.53;;;;;;;-10.29;64.95;100908.31;4935317;29;20146;-85
2023/01/25 07:28:31;;;;;;;12.60;6.65;;;;;;;-10.18;64.81;100911.19;4935504;29;20043;-83
2023/01/25 07:31:05;;;;;;;11.95;4.78;;;;;;;-10.18;64.79;100899.97;4921940;29;20039;-88
2023/01/25 07:33:31;;;;;;;16.13;6.25;;;;;;;-10.21;64.65;100885.22;4923547;29;20039;-86
2023/01/25 07:36:06;;;;;;;8.93;5.88;;;;;;;-9.32;74.58;100892.78;4921424;29;20075;-83
2023/01/25 07:38:33;;;;;;;10.52;5.53;;;;;;;-8.43;78.11;100889.66;4906400;29;20043;-83
2023/01/25 07:40:58;;;;;;;13.52;6.45;;;;;;;-8.09;71.97;100888.59;4924676;29;20054;-85
2023/01/25 07:43:25;;;;;;;16.63;7.78;;;;;;;-8.38;64.51;100880.28;4914580;29;20047;-91
2023/01/25 07:45:51;;;;;;;15.75;7.70;;;;;;;-8.32;64.54;100886.41;4925491;29;20418;-92
2023/01/25 07:48:22;;;;;;;15.82;7.97;;;;;;;-8.45;62.96;100887.03;4938694;28;20059;-92
2023/01/25 07:51:10;;;;;;;17.25;7.90;;;;;;;-8.33;63.21;100882.06;4923322;29;20048;-90
2023/01/25 07:53:40;;;;;;;27.95;8.30;;;;;;;-8.32;61.61;100889.00;4919041;29;20055;-89
2023/01/25 07:56:08;;;;;;;12.70;7.10;;;;;;;-8.39;61.91;100875.91;4922110;29;20060;-88
2023/01/25 07:58:34;;;;;;;11.18;6.30;;;;;;;-8.58;61.98;100872.91;4908604;29;20052;-84
2023/01/25 08:01:14;;;;;;;14.93;6.57;;;;;;;-8.57;62.17;100866.91;4924367;29;20098;-88
2023/01/25 08:03:41;;;;;;;14.40;7.70;;;;;;;-8.44;61.86;100872.34;4908454;29;20044;-88
2023/01/25 08:06:07;;;;;;;12.60;7.38;;;;;;;-8.43;61.62;100874.09;4937067;29;20130;-86
2023/01/25 08:08:38;;;;;;;14.57;7.07;;;;;;;-8.39;61.68;100855.16;4909599;29;20070;-88
2023/01/25 08:11:19;;;;;;;15.77;7.97;;;;;;;-8.17;61.23;100867.69;4925926;29;20048;-86
2023/01/25 08:13:47;;;;;;;23.70;6.63;;;;;;;-8.15;60.81;100868.63;4895675;29;20143;-84
2023/01/25 08:16:15;;;;;;;19.70;7.57;;;;;;;-8.16;60.85;100885.03;4889756;29;20040;-84
2023/01/25 08:18:42;;;;;;;21.55;8.57;;;;;;;-8.07;60.86;100890.41;4904897;29;20090;-80
2023/01/25 08:21:09;;;;;;;16.90;8.57;;;;;;;-7.77;61.44;100872.78;4904575;29;20134;-84
2023/01/25 08:23:35;;;;;;;15.55;8.10;;;;;;;-7.64;59.98;100886.00;4889716;29;20138;-83
2023/01/25 08:26:05;;;;;;;15.07;8.10;;;;;;;-7.41;60.07;100883.84;4888019;29;20507;-86
2023/01/25 08:28:31;;;;;;;15.52;8.13;;;;;;;-7.22;59.85;100882.44;4936078;29;20091;-83
2023/01/25 08:31:05;;;;;;;15.77;8.10;;;;;;;-6.96;59.04;100881.97;4904661;29;20059;-87
2023/01/25 08:33:32;;;;;;;27.60;9.57;;;;;;;-7.02;58.15;100864.56;4906798;29;20059;-85
2023/01/25 08:35:57;;;;;;;16.35;8.55;;;;;;;-6.89;58.45;100870.81;4941206;29;20048;-85
2023/01/25 08:38:23;;;;;;;21.17;8.20;;;;;;;-6.95;58.07;100868.13;4922431;29;20511;-86
2023/01/25 08:40:49;;;;;;;15.00;7.57;;;;;;;-6.78;58.54;100863.16;4892700;29;20542;-85
2023/01/25 08:43:15;;;;;;;17.23;8.20;;;;;;;-6.62;58.19;100871.22;4928975;29;20139;-82
2023/01/25 08:45:41;;;;;;;13.82;7.10;;;;;;;-6.58;57.32;100882.56;4927208;29;20071;-88
2023/01/25 08:48:07;;;;;;;16.85;8.13;;;;;;;-6.73;57.11;100859.81;4931816;29;20521;-88
2023/01/25 08:50:33;;;;;;;15.13;8.65;;;;;;;-6.70;58.13;100865.03;4928217;29;20039;-91
2023/01/25 08:52:59;;;;;;;13.35;7.45;;;;;;;-6.81;57.89;100861.38;4942084;29;20051;-86
2023/01/25 08:55:25;;;;;;;13.93;8.32;;;;;;;-6.69;57.79;100851.19;4941501;29;20050;-87
2023/01/25 08:57:51;;;;;;;13.27;7.80;;;;;;;-6.57;57.33;100849.63;4923995;29;20130;-86
2023/01/25 09:00:17;;;;;;;13.70;7.43;;;;;;;-6.74;57.21;100836.34;4940008;29;20047;-84
2023/01/25 09:02:43;;;;;;;22.05;7.70;;;;;;;-7.01;57.01;100837.72;4956570;28;20036;-85
2023/01/25 09:05:09;;;;;;;14.90;7.18;;;;;;;-6.84;57.46;100840.56;4923074;29;20043;-85
2023/01/25 09:07:37;;;;;;;14.98;8.38;;;;;;;-6.67;58.02;100827.78;4955696;29;20035;-83
2023/01/25 09:10:07;;;;;;;16.17;9.10;;;;;;;-6.62;56.66;100821.81;4921767;29;20042;-86
2023/01/25 09:12:34;;;;;;;13.18;7.15;;;;;;;-6.83;56.84;100818.91;4944592;29;20051;-83
2023/01/25 09:15:01;;;;;;;15.88;8.27;;;;;;;-7.10;57.26;100822.84;4940967;29;20051;-85
2023/01/25 09:17:29;;;;;;;18.58;8.43;;;;;;;-7.05;57.34;100819.44;4905384;29;20522;-84
2023/01/25 09:19:54;;;;;;;17.40;8.85;;;;;;;-7.09;57.41;100810.75;4920030;29;20044;-85
2023/01/25 09:22:22;;;;;;;18.90;9.02;;;;;;;-7.04;57.06;100813.41;4921638;29;20562;-89
2023/01/25 09:24:52;;;;;;;24.40;9.73;;;;;;;-7.10;56.94;100812.47;4919244;29;20048;-88
2023/01/25 09:27:18;;;;;;;16.42;8.73;;;;;;;-7.35;56.87;100793.03;4901916;29;20168;-88
2023/01/25 09:29:44;;;;;;;19.23;8.85;;;;;;;-7.40;57.26;100791.22;4885471;29;20060;-81
2023/01/25 09:32:10;;;;;;;16.30;8.15;;;;;;;-7.39;57.28;100785.16;4885365;29;20048;-84
2023/01/25 09:34:48;;;;;;;16.05;7.88;;;;;;;-6.98;59.83;100790.09;4904782;29;20463;-86
2023/01/25 09:37:14;;;;;;;16.50;8.35;;;;;;;-7.09;57.21;100790.81;4903794;29;20056;-85
2023/01/25 09:39:39;;;;;;;20.20;7.78;;;;;;;-7.27;57.16;100781.88;4890115;29;20042;-83
2023/01/25 09:42:21;;;;;;;20.48;8.38;;;;;;;-6.96;61.46;100799.66;4907616;29;20048;-80
2023/01/25 09:44:56;;;;;;;19.42;7.45;;;;;;;-7.02;57.35;100794.38;4903837;29;20066;-81
2023/01/25 09:47:31;;;;;;;20.67;10.07;;;;;;;-7.00;56.95;100781.41;4904371;29;20036;-82
2023/01/25 09:50:06;;;;;;;21.58;8.43;;;;;;;-7.04;56.66;100777.00;4900622;29;20150;-82
2023/01/25 09:52:59;;;;;;;14.80;7.18;;;;;;;-6.87;56.40;100783.34;4916220;29;20044;-82
2023/01/25 09:55:27;;;;;;;22.35;9.63;;;;;;;-6.70;56.71;100781.81;4900910;29;20048;-82
2023/01/25 09:57:55;;;;;;;21.70;8.57;;;;;;;-6.59;56.26;100779.34;4900806;29;20056;-82
2023/01/25 10:00:30;;;;;;;25.02;8.93;;;;;;;-6.60;55.98;100770.69;4901677;29;20096;-81
2023/01/25 10:03:10;;;;;;;25.08;9.98;;;;;;;-6.54;55.89;100774.19;4890390;29;20110;-82
2023/01/25 10:05:45;;;;;;;22.60;9.80;;;;;;;-6.42;56.35;100761.34;4939014;29;20054;-82
2023/01/25 10:08:57;;;;;;;38.42;12.60;;;;;;;-6.48;55.96;100763.88;4904168;29;20078;-81
2023/01/25 10:11:29;;;;;;;14.93;8.18;;;;;;;-6.45;55.91;100769.13;4934268;29;20060;-81
2023/01/25 10:13:59;;;;;;;20.88;8.55;;;;;;;-6.46;55.75;100791.66;4903777;29;20135;-86
2023/01/25 10:17:01;;;;;;;18.52;9.02;;;;;;;-6.14;56.22;100779.00;4919687;29;20499;-81
2023/01/25 10:19:33;;;;;;;20.50;9.40;;;;;;;-6.21;55.47;100781.53;4935978;29;20075;-82
2023/01/25 10:22:07;;;;;;;22.27;9.75;;;;;;;-6.05;55.28;100762.63;4887771;29;20494;-88
2023/01/25 10:24:59;;;;;;;22.70;9.32;;;;;;;-6.09;54.71;100768.66;4887718;29;20051;-82
2023/01/25 10:27:52;;;;;;;21.80;9.48;;;;;;;-6.24;55.20;100766.78;4936362;29;20048;-81
2023/01/25 10:30:53;;;;;;;18.58;8.77;;;;;;;-6.08;55.30;100778.22;4887490;29;20063;-81
2023/01/25 10:33:20;;;;;;;19.17;8.55;;;;;;;-6.24;55.38;100761.56;4861790;29;20056;-83
2023/01/25 10:35:48;;;;;;;24.33;9.23;;;;;;;-6.06;55.52;100765.19;4907162;29;20063;-82
2023/01/25 10:38:32;;;;;;;18.57;9.43;;;;;;;-6.16;54.81;100759.91;4935286;29;20563;-84
2023/01/25 10:41:16;;;;;;;20.70;10.10;;;;;;;-6.19;55.60;100764.22;4887809;29;20114;-82
2023/01/25 10:43:42;;;;;;;24.55;9.48;;;;;;;-6.16;54.94;100759.91;4919058;29;20102;-82
2023/01/25 10:46:24;;;;;;;23.23;9.27;;;;;;;-6.09;55.07;100765.16;4919225;29;20044;-80
2023/01/25 10:48:50;;;;;;;22.58;10.10;;;;;;;-6.16;55.04;100757.31;4919102;29;20496;-83
2023/01/25 10:51:32;;;;;;;21.27;10.20;;;;;;;-6.07;54.58;100760.84;4934683;29;20050;-83
2023/01/25 10:54:03;;;;;;;23.60;10.05;;;;;;;-5.94;55.08;100754.91;4902873;29;20075;-83
2023/01/25 10:56:36;;;;;;;19.83;9.30;;;;;;;-5.83;54.17;100763.66;4902395;29;20039;-81
2023/01/25 10:59:24;;;;;;;21.55;9.00;;;;;;;-5.65;54.23;100761.22;4905871;29;20043;-82
2023/01/25 11:01:51;;;;;;;22.92;8.57;;;;;;;-5.64;53.87;100749.94;4938004;29;20043;-82
2023/01/25 11:04:35;;;;;;;17.48;8.68;;;;;;;-5.79;53.53;100764.56;4937553;29;20137;-82
2023/01/25 11:07:04;;;;;;;16.08;9.00;;;;;;;-5.60;53.66;100758.66;4921975;29;20039;-82
2023/01/25 11:09:38;;;;;;;15.98;8.85;;;;;;;-5.54;53.20;100760.44;4955153;29;20535;-82
2023/01/25 11:12:18;;;;;;;16.13;8.30;;;;;;;-5.51;52.90;100757.84;4922004;29;20473;-83
2023/01/25 11:14:50;;;;;;;16.20;9.00;;;;;;;-5.50;52.91;100757.84;4905845;29;20049;-82
2023/01/25 11:17:34;;;;;;;17.50;9.27;;;;;;;-5.47;53.00;100759.63;4922391;29;20039;-80
2023/01/25 11:20:19;;;;;;;16.70;8.65;;;;;;;-5.43;52.79;100759.66;4906617;29;20047;-82
2023/01/25 11:22:54;;;;;;;22.67;9.23;;;;;;;-5.57;52.76;100761.28;4906309;29;20483;-81
2023/01/25 11:25:31;;;;;;;19.85;9.07;;;;;;;-5.93;53.38;100754.06;4937608;29;20047;-81
2023/01/25 11:28:17;;;;;;;26.65;9.20;;;;;;;-5.88;53.29;100752.31;4907729;29;20043;-82
2023/01/25 11:30:44;;;;;;;18.65;8.80;;;;;;;-5.80;53.36;100763.69;4915985;29;20245;-80